createdAt,value
2018-11-11T00:01:47.000Z,27.3
2018-11-11T00:03:47.000Z,27.2
2018-11-11T00:04:47.000Z,27.2
2018-11-11T00:06:47.000Z,27.3
2018-11-11T00:07:47.000Z,27.3
2018-11-11T00:08:47.000Z,27.4
2018-11-11T00:10:47.000Z,27.4
2018-11-11T00:12:47.000Z,27.4
2018-11-11T00:14:47.000Z,27.3
2018-11-11T00:15:47.000Z,27.3
2018-11-11T00:17:47.000Z,27.2
2018-11-11T00:18:47.000Z,27.2
2018-11-11T00:20:47.000Z,27.3
2018-11-11T00:22:47.000Z,27.3
2018-11-11T00:23:47.000Z,27.3
2018-11-11T00:25:47.000Z,27.3
2018-11-11T00:26:47.000Z,27.3
2018-11-11T00:28:47.000Z,27.3
2018-11-11T00:29:47.000Z,27.3
2018-11-11T00:31:47.000Z,27.3
2018-11-11T00:32:47.000Z,27.3
2018-11-11T00:33:47.000Z,27.4
2018-11-11T00:34:47.000Z,27.4
2018-11-11T00:36:47.000Z,27.4
2018-11-11T00:38:47.000Z,27.4
2018-11-11T00:39:47.000Z,27.4
2018-11-11T00:40:47.000Z,27.4
2018-11-11T00:42:47.000Z,27.5
2018-11-11T00:43:47.000Z,27.5
2018-11-11T00:44:47.000Z,27.5
2018-11-11T00:45:47.000Z,27.6
2018-11-11T00:47:47.000Z,27.6
2018-11-11T00:49:47.000Z,27.5
2018-11-11T00:50:47.000Z,27.5
2018-11-11T00:52:47.000Z,27.5
2018-11-11T00:53:47.000Z,27.5
2018-11-11T00:54:47.000Z,27.5
2018-11-11T00:55:47.000Z,27.5
2018-11-11T00:57:47.000Z,27.5
2018-11-11T00:59:47.000Z,27.4
2018-11-11T01:01:47.000Z,27.3
2018-11-11T01:03:47.000Z,27.3
2018-11-11T01:05:47.000Z,27.3
2018-11-11T01:06:47.000Z,27.3
2018-11-11T01:08:47.000Z,27.3
2018-11-11T01:09:47.000Z,27.3
2018-11-11T01:11:32.000Z,27.4
2018-11-11T01:12:47.000Z,27.4
2018-11-11T01:14:47.000Z,27.3
2018-11-11T01:15:47.000Z,27.3
2018-11-11T01:16:47.000Z,27.4
2018-11-11T01:17:47.000Z,27.4
2018-11-11T01:19:47.000Z,27.4
2018-11-11T01:20:47.000Z,27.4
2018-11-11T01:22:47.000Z,27.4
2018-11-11T01:24:47.000Z,27.3
2018-11-11T01:25:47.000Z,27.3
2018-11-11T01:27:47.000Z,27.3
2018-11-11T01:28:47.000Z,27.3
2018-11-11T01:30:47.000Z,27.3
2018-11-11T01:32:47.000Z,27.3
2018-11-11T01:34:47.000Z,27.3
2018-11-11T01:36:47.000Z,27.2
2018-11-11T01:37:47.000Z,27.2
2018-11-11T01:39:47.000Z,27.2
2018-11-11T01:41:47.000Z,27.2
2018-11-11T01:42:47.000Z,27.2
2018-11-11T01:44:47.000Z,27.3
2018-11-11T01:46:47.000Z,27.2
2018-11-11T01:48:47.000Z,27.2
2018-11-11T01:50:47.000Z,27.2
2018-11-11T01:52:47.000Z,27.2
2018-11-11T01:53:47.000Z,27.2
2018-11-11T01:55:47.000Z,27.2
2018-11-11T01:56:47.000Z,27.2
2018-11-11T01:58:47.000Z,27.2
2018-11-11T02:00:47.000Z,27.2
2018-11-11T02:01:47.000Z,27.2
2018-11-11T02:02:47.000Z,27.3
2018-11-11T02:04:47.000Z,27.3
2018-11-11T02:06:47.000Z,27.3
2018-11-11T02:08:47.000Z,27.2
2018-11-11T02:09:47.000Z,27.2
2018-11-11T02:11:47.000Z,27.2
2018-11-11T02:12:47.000Z,27.2
2018-11-11T02:13:47.000Z,27.3
2018-11-11T02:15:32.000Z,27.3
2018-11-11T02:16:47.000Z,27.3
2018-11-11T02:17:47.000Z,27.3
2018-11-11T02:19:47.000Z,27.4
2018-11-11T02:20:47.000Z,27.4
2018-11-11T02:22:47.000Z,27.4
2018-11-11T02:24:47.000Z,27.4
2018-11-11T02:26:47.000Z,27.3
2018-11-11T02:28:31.000Z,27.2
2018-11-11T02:29:47.000Z,27.2
2018-11-11T02:30:47.000Z,27.2
2018-11-11T02:32:47.000Z,27.2
2018-11-11T02:34:47.000Z,27.2
2018-11-11T02:35:47.000Z,27.2
2018-11-11T02:36:47.000Z,27.3
2018-11-11T02:37:47.000Z,27.4
2018-11-11T02:39:47.000Z,27.4
2018-11-11T02:40:47.000Z,27.5
2018-11-11T02:41:47.000Z,27.5
2018-11-11T02:43:47.000Z,27.5
2018-11-11T02:45:31.000Z,27.5
2018-11-11T02:46:47.000Z,27.4
2018-11-11T02:48:47.000Z,27.4
2018-11-11T02:50:47.000Z,27.3
2018-11-11T02:51:47.000Z,27.3
2018-11-11T02:53:47.000Z,27.3
2018-11-11T02:55:47.000Z,27.2
2018-11-11T02:57:47.000Z,27.2
2018-11-11T02:58:47.000Z,27.2
2018-11-11T03:00:47.000Z,27.2
2018-11-11T03:01:47.000Z,27.3
2018-11-11T03:03:47.000Z,27.3
2018-11-11T03:04:47.000Z,27.3
2018-11-11T03:05:47.000Z,27.3
2018-11-11T03:07:47.000Z,27.4
2018-11-11T03:08:47.000Z,27.4
2018-11-11T03:09:47.000Z,27.4
2018-11-11T03:11:47.000Z,27.4
2018-11-11T03:13:47.000Z,27.3
2018-11-11T03:14:47.000Z,27.2
2018-11-11T03:16:47.000Z,27.2
2018-11-11T03:17:47.000Z,27.2
2018-11-11T03:18:47.000Z,27.2
2018-11-11T03:20:47.000Z,27.3
2018-11-11T03:22:47.000Z,27.3
2018-11-11T03:24:47.000Z,27.3
2018-11-11T03:26:47.000Z,27.2
2018-11-11T03:28:47.000Z,27.2
2018-11-11T03:30:47.000Z,27.2
2018-11-11T03:32:47.000Z,27.2
2018-11-11T03:34:47.000Z,27.2
2018-11-11T03:36:47.000Z,27.1
2018-11-11T03:37:47.000Z,27.1
2018-11-11T03:38:47.000Z,27.1
2018-11-11T03:40:47.000Z,27.1
2018-11-11T03:41:47.000Z,27.2
2018-11-11T03:43:47.000Z,27.2
2018-11-11T03:44:47.000Z,27.2
2018-11-11T03:46:47.000Z,27.3
2018-11-11T03:48:47.000Z,27.3
2018-11-11T03:49:47.000Z,27.3
2018-11-11T03:51:31.000Z,27.3
2018-11-11T03:52:47.000Z,27.3
2018-11-11T03:53:47.000Z,27.3
2018-11-11T03:55:47.000Z,27.3
2018-11-11T03:56:47.000Z,27.3
2018-11-11T03:58:47.000Z,27.2
2018-11-11T04:00:47.000Z,27.2
2018-11-11T04:02:47.000Z,27.1
2018-11-11T04:03:47.000Z,27.2
2018-11-11T04:05:47.000Z,27.2
2018-11-11T04:06:47.000Z,27.2
2018-11-11T04:08:47.000Z,27.2
2018-11-11T04:09:47.000Z,27.2
2018-11-11T04:10:47.000Z,27.3
2018-11-11T04:12:47.000Z,27.3
2018-11-11T04:13:47.000Z,27.4
2018-11-11T04:15:47.000Z,27.4
2018-11-11T04:16:47.000Z,27.4
2018-11-11T04:18:47.000Z,27.4
2018-11-11T04:19:47.000Z,27.3
2018-11-11T04:20:47.000Z,27.3
2018-11-11T04:21:47.000Z,27.3
2018-11-11T04:22:47.000Z,27.4
2018-11-11T04:24:47.000Z,27.4
2018-11-11T04:26:47.000Z,27.4
2018-11-11T04:28:47.000Z,27.4
2018-11-11T04:30:47.000Z,27.2
2018-11-11T04:32:47.000Z,27.1
2018-11-11T04:33:47.000Z,27.1
2018-11-11T04:34:47.000Z,27.1
2018-11-11T04:36:47.000Z,27.2
2018-11-11T04:38:47.000Z,27.2
2018-11-11T04:40:31.000Z,27.2
2018-11-11T04:41:47.000Z,27.2
2018-11-11T04:43:47.000Z,27.1
2018-11-11T04:45:47.000Z,27.1
2018-11-11T04:46:47.000Z,27.1
2018-11-11T04:48:47.000Z,27.1
2018-11-11T04:49:47.000Z,27.2
2018-11-11T04:51:47.000Z,27.2
2018-11-11T04:52:47.000Z,27.2
2018-11-11T04:54:47.000Z,27.2
2018-11-11T04:55:47.000Z,27.2
2018-11-11T04:57:31.000Z,27.3
2018-11-11T04:58:47.000Z,27.2
2018-11-11T04:59:47.000Z,27.3
2018-11-11T05:01:47.000Z,27.2
2018-11-11T05:02:47.000Z,27.2
2018-11-11T05:04:47.000Z,27.2
2018-11-11T05:06:47.000Z,27.2
2018-11-11T05:08:47.000Z,27.2
2018-11-11T05:10:47.000Z,27.1
2018-11-11T05:12:47.000Z,27.1
2018-11-11T05:14:47.000Z,27.1
2018-11-11T05:15:47.000Z,27.1
2018-11-11T05:17:47.000Z,27.1
2018-11-11T05:18:47.000Z,27.2
2018-11-11T05:19:47.000Z,27.2
2018-11-11T05:21:47.000Z,27.2
2018-11-11T05:22:47.000Z,27.2
2018-11-11T05:24:47.000Z,27.3
2018-11-11T05:25:47.000Z,27.3
2018-11-11T05:27:47.000Z,27.3
2018-11-11T05:29:47.000Z,27.2
2018-11-11T05:31:47.000Z,27.1
2018-11-11T05:33:47.000Z,27.1
2018-11-11T05:34:47.000Z,27.1
2018-11-11T05:36:47.000Z,27.2
2018-11-11T05:37:47.000Z,27.2
2018-11-11T05:38:47.000Z,27.2
2018-11-11T05:40:47.000Z,27.2
2018-11-11T05:41:47.000Z,27.3
2018-11-11T05:43:47.000Z,27.2
2018-11-11T05:45:47.000Z,27.2
2018-11-11T05:46:47.000Z,27.2
2018-11-11T05:48:47.000Z,27.2
2018-11-11T05:50:47.000Z,27.1
2018-11-11T05:52:47.000Z,27.1
2018-11-11T05:53:47.000Z,27.1
2018-11-11T05:54:47.000Z,27.1
2018-11-11T05:55:47.000Z,27.2
2018-11-11T05:57:47.000Z,27.3
2018-11-11T05:58:47.000Z,27.3
2018-11-11T05:59:47.000Z,27.3
2018-11-11T06:01:31.000Z,27.4
2018-11-11T06:02:47.000Z,27.4
2018-11-11T06:03:47.000Z,27.4
2018-11-11T06:05:47.000Z,27.4
2018-11-11T06:06:47.000Z,27.4
2018-11-11T06:07:47.000Z,27.4
2018-11-11T06:09:47.000Z,27.4
2018-11-11T06:10:47.000Z,27.4
2018-11-11T06:12:47.000Z,27.3
2018-11-11T06:13:47.000Z,27.4
2018-11-11T06:15:47.000Z,27.4
2018-11-11T06:16:47.000Z,27.4
2018-11-11T06:18:47.000Z,27.3
2018-11-11T06:19:47.000Z,27.3
2018-11-11T06:21:47.000Z,27.3
2018-11-11T06:23:47.000Z,27.3
2018-11-11T06:25:47.000Z,27.2
2018-11-11T06:26:47.000Z,27.2
2018-11-11T06:28:47.000Z,27.2
2018-11-11T06:29:47.000Z,27.2
2018-11-11T06:31:47.000Z,27.2
2018-11-11T06:33:47.000Z,27.2
2018-11-11T06:35:47.000Z,27.2
2018-11-11T06:37:31.000Z,27.2
2018-11-11T06:38:47.000Z,27.1
2018-11-11T06:39:47.000Z,27.2
2018-11-11T06:41:47.000Z,27.2
2018-11-11T06:42:47.000Z,27.2
2018-11-11T06:44:31.000Z,27.3
2018-11-11T06:45:47.000Z,27.3
2018-11-11T06:47:47.000Z,27.2
2018-11-11T06:48:47.000Z,27.2
2018-11-11T06:50:47.000Z,27.2
2018-11-11T06:52:47.000Z,27.1
2018-11-11T06:54:47.000Z,27
2018-11-11T06:56:47.000Z,27
2018-11-11T06:57:47.000Z,27.1
2018-11-11T06:59:47.000Z,27.1
2018-11-11T07:00:47.000Z,27.2
2018-11-11T07:02:31.000Z,27.2
2018-11-11T07:03:47.000Z,27.2
2018-11-11T07:04:47.000Z,27.2
2018-11-11T07:06:47.000Z,27.3
2018-11-11T07:08:47.000Z,27.3
2018-11-11T07:09:47.000Z,27.3
2018-11-11T07:11:47.000Z,27.3
2018-11-11T07:13:47.000Z,27.3
2018-11-11T07:15:47.000Z,27.2
2018-11-11T07:16:47.000Z,27.3
2018-11-11T07:17:47.000Z,27.3
2018-11-11T07:19:47.000Z,27.3
2018-11-11T07:21:47.000Z,27.3
2018-11-11T07:23:47.000Z,27.2
2018-11-11T07:25:31.000Z,27.3
2018-11-11T07:26:47.000Z,27.2
2018-11-11T07:28:47.000Z,27.2
2018-11-11T07:30:47.000Z,27.2
2018-11-11T07:32:47.000Z,27.2
2018-11-11T07:33:47.000Z,27.2
2018-11-11T07:34:47.000Z,27.3
2018-11-11T07:35:47.000Z,27.3
2018-11-11T07:36:47.000Z,27.4
2018-11-11T07:37:47.000Z,27.5
2018-11-11T07:39:47.000Z,27.5
2018-11-11T07:40:47.000Z,27.5
2018-11-11T07:42:47.000Z,27.6
2018-11-11T07:44:47.000Z,27.6
2018-11-11T07:46:47.000Z,27.5
2018-11-11T07:47:47.000Z,27.5
2018-11-11T07:48:47.000Z,27.5
2018-11-11T07:49:47.000Z,27.6
2018-11-11T07:50:47.000Z,27.6
2018-11-11T07:52:47.000Z,27.5
2018-11-11T07:53:47.000Z,27.5
2018-11-11T07:55:47.000Z,27.5
2018-11-11T07:57:47.000Z,27.5
2018-11-11T07:59:47.000Z,27.4
2018-11-11T08:01:47.000Z,27.4
2018-11-11T08:02:47.000Z,27.4
2018-11-11T08:04:47.000Z,27.4
2018-11-11T08:05:47.000Z,27.4
2018-11-11T08:06:47.000Z,27.4
2018-11-11T08:08:47.000Z,27.5
2018-11-11T08:09:47.000Z,27.5
2018-11-11T08:10:47.000Z,27.6
2018-11-11T08:11:47.000Z,27.6
2018-11-11T08:12:47.000Z,27.6
2018-11-11T08:13:47.000Z,27.6
2018-11-11T08:15:47.000Z,27.6
2018-11-11T08:16:47.000Z,27.7
2018-11-11T08:18:47.000Z,27.7
2018-11-11T08:20:47.000Z,27.7
2018-11-11T08:22:47.000Z,27.7
2018-11-11T08:23:47.000Z,27.7
2018-11-11T08:24:47.000Z,27.8
2018-11-11T08:26:47.000Z,27.9
2018-11-11T08:28:47.000Z,27.9
2018-11-11T08:29:47.000Z,28
2018-11-11T08:31:47.000Z,28
2018-11-11T08:33:32.000Z,28.1
2018-11-11T08:34:47.000Z,28.2
2018-11-11T08:35:47.000Z,28.3
2018-11-11T08:36:47.000Z,28.4
2018-11-11T08:37:47.000Z,28.5
2018-11-11T08:39:47.000Z,28.5
2018-11-11T08:40:47.000Z,28.5
2018-11-11T08:41:47.000Z,28.5
2018-11-11T08:42:47.000Z,28.5
2018-11-11T08:44:47.000Z,28.5
2018-11-11T08:46:47.000Z,28.4
2018-11-11T08:47:47.000Z,28.4
2018-11-11T08:48:47.000Z,28.4
2018-11-11T08:49:47.000Z,28.4
2018-11-11T08:51:47.000Z,28.4
2018-11-11T08:53:47.000Z,28.3
2018-11-11T08:55:47.000Z,28.1
2018-11-11T08:56:47.000Z,28
2018-11-11T08:57:47.000Z,28
2018-11-11T08:59:47.000Z,28
2018-11-11T09:00:47.000Z,28
2018-11-11T09:02:47.000Z,28
2018-11-11T09:04:47.000Z,27.9
2018-11-11T09:05:47.000Z,27.9
2018-11-11T09:07:47.000Z,27.9
2018-11-11T09:09:47.000Z,27.9
2018-11-11T09:11:47.000Z,27.9
2018-11-11T09:12:47.000Z,28
2018-11-11T09:14:47.000Z,28
2018-11-11T09:16:47.000Z,28.1
2018-11-11T09:18:47.000Z,28
2018-11-11T09:19:47.000Z,28
2018-11-11T09:21:32.000Z,28
2018-11-11T09:22:47.000Z,28
2018-11-11T09:23:47.000Z,28
2018-11-11T09:25:47.000Z,28.1
2018-11-11T09:26:47.000Z,28.2
2018-11-11T09:27:47.000Z,28.3
2018-11-11T09:29:47.000Z,28.4
2018-11-11T09:30:47.000Z,28.5
2018-11-11T09:32:47.000Z,28.7
2018-11-11T09:33:47.000Z,28.8
2018-11-11T09:35:47.000Z,28.9
2018-11-11T09:37:47.000Z,29
2018-11-11T09:39:47.000Z,29.4
2018-11-11T09:41:47.000Z,30.3
2018-11-11T09:42:47.000Z,30.8
2018-11-11T09:44:47.000Z,31.4
2018-11-11T09:45:47.000Z,31.5
2018-11-11T09:47:47.000Z,31.3
2018-11-11T09:49:47.000Z,31.1
2018-11-11T09:51:47.000Z,30.9
2018-11-11T09:52:47.000Z,31.2
2018-11-11T09:53:47.000Z,31.7
2018-11-11T09:54:47.000Z,32.2
2018-11-11T09:55:47.000Z,32.7
2018-11-11T09:57:47.000Z,33.4
2018-11-11T09:58:47.000Z,33.7
2018-11-11T10:00:47.000Z,34.1
2018-11-11T10:02:47.000Z,33.4
2018-11-11T10:03:47.000Z,33
2018-11-11T10:04:47.000Z,32.6
2018-11-11T10:06:47.000Z,31.8
2018-11-11T10:08:47.000Z,31.2
2018-11-11T10:09:47.000Z,30.9
2018-11-11T10:11:47.000Z,30.5
2018-11-11T10:13:47.000Z,30.1
2018-11-11T10:14:47.000Z,30
2018-11-11T10:16:47.000Z,29.8
2018-11-11T10:17:47.000Z,29.7
2018-11-11T10:18:47.000Z,29.6
2018-11-11T10:20:47.000Z,29.4
2018-11-11T10:22:47.000Z,29.2
2018-11-11T10:23:47.000Z,29.1
2018-11-11T10:24:47.000Z,29.1
2018-11-11T10:25:47.000Z,29.1
2018-11-11T10:27:47.000Z,29
2018-11-11T10:28:47.000Z,29
2018-11-11T10:30:47.000Z,29
2018-11-11T10:32:47.000Z,28.9
2018-11-11T10:33:47.000Z,28.8
2018-11-11T10:34:47.000Z,28.8
2018-11-11T10:35:47.000Z,28.8
2018-11-11T10:37:47.000Z,28.8
2018-11-11T10:38:47.000Z,28.7
2018-11-11T10:39:47.000Z,28.7
2018-11-11T10:40:47.000Z,28.8
2018-11-11T10:42:47.000Z,28.8
2018-11-11T10:43:47.000Z,28.7
2018-11-11T10:45:47.000Z,28.7
2018-11-11T10:46:47.000Z,28.7
2018-11-11T10:48:47.000Z,28.6
2018-11-11T10:49:47.000Z,28.5
2018-11-11T10:51:47.000Z,28.5
2018-11-11T10:52:47.000Z,28.4
2018-11-11T10:54:47.000Z,28.4
2018-11-11T10:56:47.000Z,28.4
2018-11-11T10:57:47.000Z,28.4
2018-11-11T10:59:47.000Z,28.3
2018-11-11T11:01:47.000Z,28.2
2018-11-11T11:02:47.000Z,28.2
2018-11-11T11:03:47.000Z,28.2
2018-11-11T11:05:47.000Z,28.2
2018-11-11T11:07:47.000Z,28.2
2018-11-11T11:08:47.000Z,28.2
2018-11-11T11:09:47.000Z,28.3
2018-11-11T11:11:47.000Z,28.2
2018-11-11T11:13:47.000Z,28.2
2018-11-11T11:15:47.000Z,28.1
2018-11-11T11:17:47.000Z,28.1
2018-11-11T11:19:47.000Z,28
2018-11-11T11:21:47.000Z,28
2018-11-11T11:23:47.000Z,28
2018-11-11T11:24:47.000Z,28
2018-11-11T11:26:47.000Z,28
2018-11-11T11:28:47.000Z,28
2018-11-11T11:30:47.000Z,28
2018-11-11T11:32:47.000Z,27.9
2018-11-11T11:34:47.000Z,27.9
2018-11-11T11:36:47.000Z,27.8
2018-11-11T11:37:47.000Z,27.9
2018-11-11T11:39:47.000Z,27.9
2018-11-11T11:41:47.000Z,27.9
2018-11-11T11:43:47.000Z,27.8
2018-11-11T11:44:47.000Z,27.9
2018-11-11T11:46:47.000Z,27.9
2018-11-11T11:47:47.000Z,28
2018-11-11T11:49:47.000Z,28
2018-11-11T11:50:47.000Z,28
2018-11-11T11:52:47.000Z,28.1
2018-11-11T11:54:47.000Z,28.1
2018-11-11T11:55:47.000Z,28.1
2018-11-11T11:57:47.000Z,28
2018-11-11T11:59:47.000Z,28
2018-11-11T12:00:47.000Z,28
2018-11-11T12:02:32.000Z,28
2018-11-11T12:03:47.000Z,28
2018-11-11T12:04:47.000Z,28
2018-11-11T12:06:47.000Z,28
2018-11-11T12:07:47.000Z,28
2018-11-11T12:08:47.000Z,28.1
2018-11-11T12:10:47.000Z,28.1
2018-11-11T12:12:47.000Z,28.1
2018-11-11T12:13:47.000Z,28.1
2018-11-11T12:15:47.000Z,28.1
2018-11-11T12:16:47.000Z,28.1
2018-11-11T12:18:47.000Z,28.1
2018-11-11T12:19:47.000Z,28.1
2018-11-11T12:21:47.000Z,28
2018-11-11T12:23:47.000Z,27.9
2018-11-11T12:24:47.000Z,27.9
2018-11-11T12:26:32.000Z,27.9
2018-11-11T12:27:47.000Z,27.9
2018-11-11T12:28:47.000Z,27.9
2018-11-11T12:29:47.000Z,27.9
2018-11-11T12:31:47.000Z,28
2018-11-11T12:33:47.000Z,28
2018-11-11T12:35:47.000Z,28.1
2018-11-11T12:36:47.000Z,28.2
2018-11-11T12:38:47.000Z,28.4
2018-11-11T12:40:47.000Z,28.4
2018-11-11T12:42:47.000Z,28.4
2018-11-11T12:43:47.000Z,28.4
2018-11-11T12:45:47.000Z,28.4
2018-11-11T12:46:47.000Z,28.5
2018-11-11T12:48:47.000Z,28.5
2018-11-11T12:49:47.000Z,28.5
2018-11-11T12:51:47.000Z,28.6
2018-11-11T12:53:47.000Z,28.5
2018-11-11T12:55:47.000Z,28.5
2018-11-11T12:56:47.000Z,28.5
2018-11-11T12:57:47.000Z,28.5
2018-11-11T12:59:47.000Z,28.4
2018-11-11T13:00:47.000Z,28.3
2018-11-11T13:02:47.000Z,28.4
2018-11-11T13:03:47.000Z,28.3
2018-11-11T13:04:47.000Z,28.4
2018-11-11T13:06:47.000Z,28.4
2018-11-11T13:07:47.000Z,28.4
2018-11-11T13:08:47.000Z,28.4
2018-11-11T13:10:47.000Z,28.5
2018-11-11T13:11:47.000Z,28.4
2018-11-11T13:12:47.000Z,28.5
2018-11-11T13:14:47.000Z,28.4
2018-11-11T13:16:47.000Z,28.3
2018-11-11T13:18:47.000Z,28.2
2018-11-11T13:19:47.000Z,28.2
2018-11-11T13:20:47.000Z,28.2
2018-11-11T13:21:47.000Z,28.3
2018-11-11T13:23:47.000Z,28.3
2018-11-11T13:24:47.000Z,28.3
2018-11-11T13:26:47.000Z,28.3
2018-11-11T13:28:47.000Z,28.2
2018-11-11T13:30:47.000Z,28.1
2018-11-11T13:32:47.000Z,28
2018-11-11T13:33:47.000Z,28
2018-11-11T13:34:47.000Z,28.1
2018-11-11T13:36:47.000Z,28.1
2018-11-11T13:37:47.000Z,28.1
2018-11-11T13:39:47.000Z,28.1
2018-11-11T13:40:47.000Z,28.1
2018-11-11T13:42:47.000Z,28.1
2018-11-11T13:44:47.000Z,28.1
2018-11-11T13:45:47.000Z,28.1
2018-11-11T13:47:47.000Z,28.1
2018-11-11T13:49:47.000Z,28.1
2018-11-11T13:50:47.000Z,28.1
2018-11-11T13:52:47.000Z,28.1
2018-11-11T13:54:47.000Z,28.1
2018-11-11T13:55:47.000Z,28.1
2018-11-11T13:56:47.000Z,28.1
2018-11-11T13:57:47.000Z,28.1
2018-11-11T13:58:47.000Z,28.1
2018-11-11T14:00:32.000Z,28.2
2018-11-11T14:01:47.000Z,28.1
2018-11-11T14:03:47.000Z,28.1
2018-11-11T14:05:47.000Z,28
2018-11-11T14:06:47.000Z,28
2018-11-11T14:08:47.000Z,28
2018-11-11T14:09:47.000Z,28
2018-11-11T14:11:47.000Z,28
2018-11-11T14:13:47.000Z,28
2018-11-11T14:15:47.000Z,27.9
2018-11-11T14:17:32.000Z,27.9
2018-11-11T14:18:47.000Z,27.9
2018-11-11T14:19:47.000Z,27.9
2018-11-11T14:21:47.000Z,27.9
2018-11-11T14:22:47.000Z,27.9
2018-11-11T14:23:47.000Z,27.9
2018-11-11T14:25:47.000Z,27.9
2018-11-11T14:27:47.000Z,27.8
2018-11-11T14:28:47.000Z,27.8
2018-11-11T14:30:47.000Z,27.8
2018-11-11T14:31:47.000Z,27.8
2018-11-11T14:32:47.000Z,27.9
2018-11-11T14:33:47.000Z,27.9
2018-11-11T14:35:47.000Z,27.9
2018-11-11T14:37:47.000Z,27.8
2018-11-11T14:38:47.000Z,27.8
2018-11-11T14:40:47.000Z,27.8
2018-11-11T14:42:47.000Z,27.8
2018-11-11T14:44:47.000Z,27.8
2018-11-11T14:46:47.000Z,27.7
2018-11-11T14:48:47.000Z,27.6
2018-11-11T14:49:47.000Z,27.6
2018-11-11T14:51:47.000Z,27.7
2018-11-11T14:52:47.000Z,27.7
2018-11-11T14:54:47.000Z,27.7
2018-11-11T14:56:47.000Z,27.6
2018-11-11T14:57:47.000Z,27.6
2018-11-11T14:59:47.000Z,27.6
2018-11-11T15:01:32.000Z,27.7
2018-11-11T15:02:47.000Z,27.6
2018-11-11T15:03:47.000Z,27.6
2018-11-11T15:04:47.000Z,27.7
2018-11-11T15:06:47.000Z,27.7
2018-11-11T15:08:47.000Z,27.7
2018-11-11T15:09:47.000Z,27.7
2018-11-11T15:11:47.000Z,27.7
2018-11-11T15:12:47.000Z,27.6
2018-11-11T15:13:47.000Z,27.7
2018-11-11T15:15:47.000Z,27.7
2018-11-11T15:17:47.000Z,27.7
2018-11-11T15:18:47.000Z,27.7
2018-11-11T15:20:47.000Z,27.7
2018-11-11T15:22:47.000Z,27.7
2018-11-11T15:23:47.000Z,27.7
2018-11-11T15:24:47.000Z,27.8
2018-11-11T15:26:47.000Z,27.8
2018-11-11T15:28:47.000Z,27.7
2018-11-11T15:30:47.000Z,27.6
2018-11-11T15:31:47.000Z,27.6
2018-11-11T15:33:47.000Z,27.6
2018-11-11T15:35:47.000Z,27.5
2018-11-11T15:37:47.000Z,27.5
2018-11-11T15:38:47.000Z,27.5
2018-11-11T15:40:47.000Z,27.6
2018-11-11T15:42:47.000Z,27.6
2018-11-11T15:44:47.000Z,27.5
2018-11-11T15:46:47.000Z,27.5
2018-11-11T15:48:47.000Z,27.4
2018-11-11T15:50:47.000Z,27.4
2018-11-11T15:52:32.000Z,27.4
2018-11-11T15:53:47.000Z,27.4
2018-11-11T15:54:47.000Z,27.4
2018-11-11T15:56:47.000Z,27.5
2018-11-11T15:57:47.000Z,27.4
2018-11-11T15:59:47.000Z,27.5
2018-11-11T16:00:47.000Z,27.5
2018-11-11T16:01:47.000Z,27.6
2018-11-11T16:02:47.000Z,27.6
2018-11-11T16:03:47.000Z,27.7
2018-11-11T16:05:47.000Z,27.8
2018-11-11T16:07:47.000Z,27.8
2018-11-11T16:08:47.000Z,27.7
2018-11-11T16:10:47.000Z,27.7
2018-11-11T16:11:47.000Z,27.6
2018-11-11T16:12:47.000Z,27.6
2018-11-11T16:14:47.000Z,27.6
2018-11-11T16:15:47.000Z,27.6
2018-11-11T16:17:47.000Z,27.6
2018-11-11T16:18:47.000Z,27.6
2018-11-11T16:19:47.000Z,27.7
2018-11-11T16:21:47.000Z,27.7
2018-11-11T16:23:47.000Z,27.6
2018-11-11T16:24:47.000Z,27.6
2018-11-11T16:25:47.000Z,27.6
2018-11-11T16:27:32.000Z,27.7
2018-11-11T16:28:47.000Z,27.6
2018-11-11T16:30:47.000Z,27.6
2018-11-11T16:31:47.000Z,27.6
2018-11-11T16:33:32.000Z,27.6
2018-11-11T16:34:47.000Z,27.6
2018-11-11T16:36:47.000Z,27.6
2018-11-11T16:38:47.000Z,27.5
2018-11-11T16:39:47.000Z,27.5
2018-11-11T16:40:47.000Z,27.6
2018-11-11T16:42:47.000Z,27.6
2018-11-11T16:43:47.000Z,27.6
2018-11-11T16:45:47.000Z,27.7
2018-11-11T16:46:47.000Z,27.7
2018-11-11T16:48:47.000Z,27.7
2018-11-11T16:49:47.000Z,27.7
2018-11-11T16:51:47.000Z,27.6
2018-11-11T16:53:47.000Z,27.6
2018-11-11T16:54:47.000Z,27.6
2018-11-11T16:56:32.000Z,27.6
2018-11-11T16:57:47.000Z,27.5
2018-11-11T16:58:47.000Z,27.6
2018-11-11T16:59:47.000Z,27.6
2018-11-11T17:01:47.000Z,27.5
2018-11-11T17:03:32.000Z,27.5
2018-11-11T17:04:47.000Z,27.4
2018-11-11T17:06:47.000Z,27.4
2018-11-11T17:08:47.000Z,27.3
2018-11-11T17:10:47.000Z,27.3
2018-11-11T17:11:47.000Z,27.3
2018-11-11T17:12:47.000Z,27.4
2018-11-11T17:14:47.000Z,27.4
2018-11-11T17:16:47.000Z,27.4
2018-11-11T17:18:47.000Z,27.4
2018-11-11T17:20:47.000Z,27.3
2018-11-11T17:21:47.000Z,27.3
2018-11-11T17:23:47.000Z,27.4
2018-11-11T17:25:47.000Z,27.3
2018-11-11T17:26:47.000Z,27.3
2018-11-11T17:28:47.000Z,27.4
2018-11-11T17:30:47.000Z,27.4
2018-11-11T17:32:47.000Z,27.4
2018-11-11T17:34:47.000Z,27.4
2018-11-11T17:35:47.000Z,27.4
2018-11-11T17:37:47.000Z,27.4
2018-11-11T17:38:47.000Z,27.4
2018-11-11T17:40:47.000Z,27.4
2018-11-11T17:42:47.000Z,27.4
2018-11-11T17:44:47.000Z,27.4
2018-11-11T17:46:47.000Z,27.4
2018-11-11T17:48:47.000Z,27.4
2018-11-11T17:50:47.000Z,27.4
2018-11-11T17:51:47.000Z,27.4
2018-11-11T17:53:47.000Z,27.4
2018-11-11T17:55:47.000Z,27.4
2018-11-11T17:57:47.000Z,27.3
2018-11-11T17:59:47.000Z,27.3
2018-11-11T18:00:47.000Z,27.3
2018-11-11T18:01:47.000Z,27.4
2018-11-11T18:02:47.000Z,27.5
2018-11-11T18:04:32.000Z,27.6
2018-11-11T18:05:47.000Z,27.5
2018-11-11T18:06:47.000Z,27.6
2018-11-11T18:08:47.000Z,27.6
2018-11-11T18:10:47.000Z,27.5
2018-11-11T18:12:47.000Z,27.4
2018-11-11T18:13:47.000Z,27.4
2018-11-11T18:15:32.000Z,27.5
2018-11-11T18:16:47.000Z,27.4
2018-11-11T18:17:47.000Z,27.5
2018-11-11T18:19:47.000Z,27.5
2018-11-11T18:20:47.000Z,27.5
2018-11-11T18:22:47.000Z,27.6
2018-11-11T18:23:47.000Z,27.6
2018-11-11T18:24:47.000Z,27.6
2018-11-11T18:26:32.000Z,27.6
2018-11-11T18:27:47.000Z,27.6
2018-11-11T18:29:47.000Z,27.6
2018-11-11T18:31:47.000Z,27.5
2018-11-11T18:32:47.000Z,27.5
2018-11-11T18:33:47.000Z,27.5
2018-11-11T18:34:47.000Z,27.6
2018-11-11T18:36:47.000Z,27.6
2018-11-11T18:37:47.000Z,27.6
2018-11-11T18:38:47.000Z,27.6
2018-11-11T18:40:47.000Z,27.6
2018-11-11T18:42:47.000Z,27.5
2018-11-11T18:43:47.000Z,27.5
2018-11-11T18:44:47.000Z,27.6
2018-11-11T18:46:47.000Z,27.6
2018-11-11T18:48:32.000Z,27.6
2018-11-11T18:49:47.000Z,27.5
2018-11-11T18:51:47.000Z,27.5
2018-11-11T18:52:47.000Z,27.4
2018-11-11T18:54:47.000Z,27.4
2018-11-11T18:56:47.000Z,27.4
2018-11-11T18:57:47.000Z,27.4
2018-11-11T18:58:47.000Z,27.5
2018-11-11T19:00:32.000Z,27.5
2018-11-11T19:01:47.000Z,27.5
2018-11-11T19:03:47.000Z,27.5
2018-11-11T19:04:47.000Z,27.5
2018-11-11T19:06:47.000Z,27.5
2018-11-11T19:08:47.000Z,27.5
2018-11-11T19:10:47.000Z,27.4
2018-11-11T19:12:47.000Z,27.3
2018-11-11T19:14:47.000Z,27.2
2018-11-11T19:16:47.000Z,27.1
2018-11-11T19:18:47.000Z,27.1
2018-11-11T19:20:47.000Z,27.1
2018-11-11T19:21:47.000Z,27.1
2018-11-11T19:22:47.000Z,27.2
2018-11-11T19:24:47.000Z,27.3
2018-11-11T19:26:47.000Z,27.3
2018-11-11T19:27:47.000Z,27.3
2018-11-11T19:29:47.000Z,27.4
2018-11-11T19:30:47.000Z,27.4
2018-11-11T19:32:47.000Z,27.5
2018-11-11T19:33:47.000Z,27.5
2018-11-11T19:35:47.000Z,27.5
2018-11-11T19:36:47.000Z,27.5
2018-11-11T19:38:31.000Z,27.6
2018-11-11T19:39:47.000Z,27.5
2018-11-11T19:40:47.000Z,27.5
2018-11-11T19:42:31.000Z,27.5
2018-11-11T19:43:47.000Z,27.5
2018-11-11T19:44:47.000Z,27.5
2018-11-11T19:46:47.000Z,27.5
2018-11-11T19:47:47.000Z,27.5
2018-11-11T19:49:47.000Z,27.5
2018-11-11T19:51:47.000Z,27.4
2018-11-11T19:53:47.000Z,27.3
2018-11-11T19:55:31.000Z,27.3
2018-11-11T19:56:47.000Z,27.3
2018-11-11T19:58:47.000Z,27.3
2018-11-11T19:59:47.000Z,27.3
2018-11-11T20:00:47.000Z,27.4
2018-11-11T20:02:47.000Z,27.5
2018-11-11T20:03:47.000Z,27.5
2018-11-11T20:05:47.000Z,27.5
2018-11-11T20:07:47.000Z,27.4
2018-11-11T20:08:47.000Z,27.4
2018-11-11T20:10:47.000Z,27.4
2018-11-11T20:12:47.000Z,27.3
2018-11-11T20:13:47.000Z,27.2
2018-11-11T20:15:47.000Z,27.3
2018-11-11T20:16:47.000Z,27.3
2018-11-11T20:18:47.000Z,27.4
2018-11-11T20:19:47.000Z,27.4
2018-11-11T20:21:47.000Z,27.4
2018-11-11T20:23:31.000Z,27.4
2018-11-11T20:24:47.000Z,27.3
2018-11-11T20:26:47.000Z,27.3
2018-11-11T20:28:31.000Z,27.3
2018-11-11T20:29:47.000Z,27.3
2018-11-11T20:31:47.000Z,27.3
2018-11-11T20:32:47.000Z,27.3
2018-11-11T20:34:47.000Z,27.3
2018-11-11T20:35:47.000Z,27.3
2018-11-11T20:37:47.000Z,27.3
2018-11-11T20:39:47.000Z,27.3
2018-11-11T20:41:47.000Z,27.3
2018-11-11T20:42:47.000Z,27.3
2018-11-11T20:44:47.000Z,27.3
2018-11-11T20:45:47.000Z,27.3